createdAt,value
2023-03-12T00:00:06.970Z,11.63
2023-03-12T00:02:40.906Z,15.20
2023-03-12T00:05:14.067Z,13.60
2023-03-12T00:07:47.148Z,15.77
2023-03-12T00:12:55.437Z,13.45
2023-03-12T00:15:29.079Z,16.10
2023-03-12T00:20:35.470Z,17.07
2023-03-12T00:23:08.420Z,15.67
2023-03-12T00:25:41.530Z,16.02
2023-03-12T00:28:16.040Z,16.52
2023-03-12T00:30:49.525Z,15.10
2023-03-12T00:33:25.573Z,12.05
2023-03-12T00:36:02.210Z,17.48
2023-03-12T00:38:36.161Z,12.68
2023-03-12T00:41:09.070Z,17.05
2023-03-12T00:43:42.003Z,17.67
2023-03-12T00:46:15.561Z,15.55
2023-03-12T00:48:48.995Z,17.47
2023-03-12T00:51:22.431Z,15.18
2023-03-12T00:53:56.202Z,16.02
2023-03-12T00:56:29.300Z,16.32
2023-03-12T00:59:03.094Z,16.50
2023-03-12T01:01:36.215Z,15.43
2023-03-12T01:04:10.774Z,16.93
2023-03-12T01:06:46.161Z,14.75
2023-03-12T01:09:20.852Z,13.80
2023-03-12T01:11:53.671Z,13.00
2023-03-12T01:14:26.935Z,22.95
2023-03-12T01:16:59.974Z,15.25
2023-03-12T01:19:33.535Z,11.22
2023-03-12T01:22:06.645Z,17.70
2023-03-12T01:24:41.570Z,14.83
2023-03-12T01:27:14.616Z,14.95
2023-03-12T01:29:47.605Z,16.95
2023-03-12T01:32:20.652Z,16.25
2023-03-12T01:34:53.685Z,12.73
2023-03-12T01:37:27.262Z,13.85
2023-03-12T01:40:00.043Z,18.87
2023-03-12T01:42:33.439Z,20.52
2023-03-12T01:45:08.110Z,16.73
2023-03-12T01:47:40.983Z,19.05
2023-03-12T01:50:15.461Z,15.40
2023-03-12T01:52:48.638Z,11.93
2023-03-12T01:55:21.617Z,13.40
2023-03-12T01:57:57.424Z,12.70
2023-03-12T02:00:30.397Z,17.70
2023-03-12T02:03:07.995Z,18.23
2023-03-12T02:06:03.607Z,14.73
2023-03-12T02:08:44.086Z,12.43
2023-03-12T02:11:18.554Z,14.58
2023-03-12T02:13:51.536Z,13.90
2023-03-12T02:16:25.842Z,16.17
2023-03-12T02:18:59.844Z,12.93
2023-03-12T02:21:35.419Z,13.32
2023-03-12T02:24:24.553Z,12.30
2023-03-12T02:26:59.164Z,10.08
2023-03-12T02:29:34.512Z,12.50
2023-03-12T02:32:09.222Z,13.68
2023-03-12T02:37:16.761Z,14.33
2023-03-12T02:40:03.876Z,12.82
2023-03-12T02:42:38.504Z,18.50
2023-03-12T02:45:12.900Z,14.20
2023-03-12T02:47:46.337Z,17.87
2023-03-12T02:50:19.204Z,13.28
2023-03-12T02:52:52.167Z,9.08
2023-03-12T02:55:25.631Z,16.07
2023-03-12T02:57:58.473Z,9.88
2023-03-12T03:00:32.535Z,10.60
2023-03-12T03:03:06.426Z,12.25
2023-03-12T03:05:39.601Z,13.60
2023-03-12T03:08:14.168Z,9.70
2023-03-12T03:10:47.847Z,9.33
2023-03-12T03:13:20.791Z,12.10
2023-03-12T03:15:54.961Z,10.05
2023-03-12T03:18:31.141Z,8.33
2023-03-12T03:23:41.918Z,9.08
2023-03-12T03:26:15.560Z,10.98
2023-03-12T03:28:48.702Z,13.60
2023-03-12T03:31:22.216Z,10.70
2023-03-12T03:33:55.592Z,11.28
2023-03-12T03:36:28.652Z,12.68
2023-03-12T03:39:09.322Z,14.53
2023-03-12T03:41:43.416Z,10.48
2023-03-12T03:44:16.752Z,11.03
2023-03-12T03:46:51.356Z,9.20
2023-03-12T03:49:25.166Z,9.33
2023-03-12T03:51:58.715Z,12.77
2023-03-12T03:54:34.199Z,11.45
2023-03-12T03:57:08.375Z,11.80
2023-03-12T03:59:41.453Z,11.63
2023-03-12T04:02:14.884Z,12.77
2023-03-12T04:04:48.225Z,9.37
2023-03-12T04:07:21.561Z,10.50
2023-03-12T04:09:54.586Z,10.03
2023-03-12T04:12:29.000Z,10.45
2023-03-12T04:15:02.485Z,9.93
2023-03-12T04:17:35.436Z,9.43
2023-03-12T04:20:11.379Z,9.20
2023-03-12T04:22:45.299Z,8.70
2023-03-12T04:25:18.603Z,14.20
2023-03-12T04:27:52.062Z,7.35
2023-03-12T04:30:25.653Z,9.50
2023-03-12T04:32:58.756Z,11.80
2023-03-12T04:35:32.953Z,8.98
2023-03-12T04:38:06.228Z,10.13
2023-03-12T04:40:39.394Z,12.35
2023-03-12T04:43:12.931Z,9.67
2023-03-12T04:45:46.076Z,6.17
2023-03-12T04:48:20.880Z,7.00
2023-03-12T04:50:55.547Z,11.00
2023-03-12T04:53:29.256Z,7.90
2023-03-12T04:56:02.746Z,9.68
2023-03-12T04:58:36.182Z,5.87
2023-03-12T05:01:11.305Z,9.13
2023-03-12T05:03:44.694Z,10.60
2023-03-12T05:06:17.688Z,5.95
2023-03-12T05:08:51.331Z,9.93
2023-03-12T05:11:25.501Z,6.12
2023-03-12T05:13:59.269Z,8.25
2023-03-12T05:16:34.128Z,9.35
2023-03-12T05:19:07.964Z,7.87
2023-03-12T05:21:43.285Z,11.73
2023-03-12T05:24:17.332Z,6.92
2023-03-12T05:26:51.994Z,11.15
2023-03-12T05:29:26.741Z,6.67
2023-03-12T05:32:00.706Z,10.72
2023-03-12T05:37:06.858Z,8.70
2023-03-12T05:39:42.864Z,9.73
2023-03-12T05:42:18.728Z,7.53
2023-03-12T05:44:52.822Z,6.75
2023-03-12T05:47:26.568Z,7.30
2023-03-12T05:49:59.685Z,7.58
2023-03-12T05:52:34.257Z,3.37
2023-03-12T05:55:08.764Z,4.50
2023-03-12T05:57:42.194Z,9.53
2023-03-12T06:00:16.965Z,3.63
2023-03-12T06:02:53.296Z,8.00
2023-03-12T06:05:26.390Z,6.20
2023-03-12T06:08:00.633Z,6.47
2023-03-12T06:10:34.004Z,8.37
2023-03-12T06:13:09.023Z,8.78
2023-03-12T06:15:42.659Z,3.72
2023-03-12T06:20:49.315Z,8.88
2023-03-12T06:23:22.721Z,4.83
2023-03-12T06:25:55.745Z,5.28
2023-03-12T06:28:29.909Z,3.47
2023-03-12T06:31:03.853Z,5.37
2023-03-12T06:33:37.397Z,5.47
2023-03-12T06:36:11.682Z,6.20
2023-03-12T06:38:44.836Z,7.87
2023-03-12T06:41:21.161Z,7.67
2023-03-12T06:43:54.557Z,5.72
2023-03-12T06:46:28.321Z,6.40
2023-03-12T06:49:02.980Z,5.03
2023-03-12T06:51:35.977Z,5.47
2023-03-12T06:54:09.110Z,6.67
2023-03-12T06:56:42.562Z,5.67
2023-03-12T06:59:15.546Z,4.58
2023-03-12T07:01:49.802Z,4.85
2023-03-12T07:04:22.855Z,5.47
2023-03-12T07:06:55.893Z,3.70
2023-03-12T07:09:32.415Z,4.70
2023-03-12T07:12:09.934Z,3.92
2023-03-12T07:14:42.755Z,2.80
2023-03-12T07:17:17.615Z,4.87
2023-03-12T07:19:51.105Z,3.95
2023-03-12T07:22:24.158Z,2.58
2023-03-12T07:24:58.396Z,2.30
2023-03-12T07:27:32.179Z,3.15
2023-03-12T07:30:06.095Z,2.35
2023-03-12T07:32:40.021Z,2.65
2023-03-12T07:35:12.932Z,1.98
2023-03-12T07:37:46.493Z,1.65
2023-03-12T07:40:19.566Z,1.82
2023-03-12T07:42:53.402Z,2.80
2023-03-12T07:45:26.793Z,2.80
2023-03-12T07:48:00.296Z,2.30
2023-03-12T07:50:33.913Z,1.30
2023-03-12T07:53:08.010Z,2.92
2023-03-12T07:55:41.557Z,2.87
2023-03-12T07:58:16.126Z,2.45
2023-03-12T08:00:49.810Z,3.22
2023-03-12T08:03:23.985Z,3.42
2023-03-12T08:06:03.003Z,2.80
2023-03-12T08:08:38.143Z,3.15
2023-03-12T08:11:11.582Z,2.98
2023-03-12T08:13:46.585Z,2.80
2023-03-12T08:18:53.197Z,3.08
2023-03-12T08:21:26.150Z,3.02
2023-03-12T08:23:59.160Z,2.67
2023-03-12T08:26:32.656Z,3.12
2023-03-12T08:29:05.791Z,2.47
2023-03-12T08:31:41.856Z,2.30
2023-03-12T08:34:14.242Z,2.30
2023-03-12T08:36:47.169Z,2.33
2023-03-12T08:39:20.640Z,2.70
2023-03-12T08:41:55.614Z,2.65
2023-03-12T08:47:00.459Z,4.97
2023-03-12T08:49:33.545Z,6.25
2023-03-12T08:52:06.943Z,8.43
2023-03-12T08:54:39.924Z,10.38
2023-03-12T08:57:13.457Z,8.73
2023-03-12T08:59:46.538Z,8.73
2023-03-12T09:02:20.211Z,10.85
2023-03-12T09:04:53.696Z,10.82
2023-03-12T09:07:26.897Z,9.40
2023-03-12T09:10:01.411Z,9.43
2023-03-12T09:12:34.853Z,10.48
2023-03-12T09:15:09.644Z,9.25
2023-03-12T09:17:42.871Z,11.93
2023-03-12T09:20:16.763Z,9.98
2023-03-12T09:22:50.052Z,8.95
2023-03-12T09:25:23.557Z,9.10
2023-03-12T09:27:56.696Z,8.83
2023-03-12T09:30:30.819Z,10.05
2023-03-12T09:33:03.660Z,9.15
2023-03-12T09:35:37.622Z,8.73
2023-03-12T09:38:16.301Z,8.78
2023-03-12T09:40:50.222Z,10.03
2023-03-12T09:43:35.084Z,8.95
2023-03-12T09:46:19.004Z,9.13
2023-03-12T09:48:54.077Z,9.20
2023-03-12T09:51:42.561Z,10.10
2023-03-12T09:54:41.077Z,9.13
2023-03-12T09:57:18.479Z,10.20
2023-03-12T09:59:52.904Z,7.87
2023-03-12T10:05:35.740Z,8.05
2023-03-12T10:08:30.734Z,9.30
2023-03-12T10:11:32.659Z,11.73
2023-03-12T10:14:23.856Z,9.88
2023-03-12T10:17:12.286Z,10.43
2023-03-12T10:20:16.268Z,10.23
2023-03-12T10:22:57.262Z,8.75
2023-03-12T10:25:43.499Z,8.43
2023-03-12T10:28:34.372Z,9.80
2023-03-12T10:31:20.777Z,10.43
2023-03-12T10:34:03.419Z,9.53
2023-03-12T10:36:40.710Z,9.83
2023-03-12T10:39:20.811Z,9.65
2023-03-12T10:41:54.312Z,10.18
2023-03-12T10:44:28.317Z,11.05
2023-03-12T10:47:22.787Z,13.48
2023-03-12T10:49:56.077Z,21.48
2023-03-12T10:52:28.978Z,28.17
2023-03-12T10:55:03.583Z,27.77
2023-03-12T10:57:43.695Z,28.52
2023-03-12T11:00:27.532Z,30.25
2023-03-12T11:03:09.688Z,33.02
2023-03-12T11:05:52.302Z,30.95
2023-03-12T11:08:34.674Z,29.32
2023-03-12T11:11:08.551Z,32.53
2023-03-12T11:13:43.395Z,31.48
2023-03-12T11:16:31.445Z,30.48
2023-03-12T11:19:05.456Z,33.08
2023-03-12T11:21:40.648Z,29.70
2023-03-12T11:24:16.468Z,31.42
2023-03-12T11:27:04.195Z,29.65
2023-03-12T11:29:43.719Z,28.80
2023-03-12T11:32:21.512Z,27.37
2023-03-12T11:34:54.878Z,26.90
2023-03-12T11:37:47.339Z,25.90
2023-03-12T11:40:56.536Z,19.85
2023-03-12T11:44:05.941Z,19.32
2023-03-12T11:47:06.719Z,17.65
2023-03-12T11:49:57.114Z,15.18
2023-03-12T11:53:00.578Z,12.78
2023-03-12T11:55:55.604Z,13.35
2023-03-12T11:58:48.349Z,12.78
2023-03-12T12:01:44.202Z,10.13
2023-03-12T12:04:46.781Z,9.30
2023-03-12T12:07:56.334Z,9.65
2023-03-12T12:11:01.310Z,9.73
2023-03-12T12:14:12.147Z,7.40
2023-03-12T12:16:58.461Z,8.33
2023-03-12T12:19:54.740Z,7.03
2023-03-12T12:22:55.219Z,8.38
2023-03-12T12:25:42.200Z,8.95
2023-03-12T12:28:32.604Z,8.58
2023-03-12T12:31:31.947Z,7.37
2023-03-12T12:34:31.595Z,6.72
2023-03-12T12:37:26.145Z,7.50
2023-03-12T12:40:19.030Z,6.78
2023-03-12T12:43:00.356Z,7.67
2023-03-12T12:45:33.746Z,12.47
2023-03-12T12:48:27.875Z,6.75
2023-03-12T12:51:02.493Z,5.03
2023-03-12T12:53:49.966Z,5.20
2023-03-12T12:56:54.254Z,5.05
2023-03-12T12:59:49.864Z,3.85
2023-03-12T13:02:33.242Z,6.20
2023-03-12T13:05:06.657Z,4.53
2023-03-12T13:07:39.823Z,4.13
2023-03-12T13:10:41.879Z,8.75
2023-03-12T13:13:26.245Z,4.67
2023-03-12T13:16:40.041Z,5.20
2023-03-12T13:19:21.704Z,5.97
2023-03-12T13:22:08.861Z,9.08
2023-03-12T13:24:50.807Z,6.55
2023-03-12T13:27:27.654Z,8.80
2023-03-12T13:30:02.346Z,7.90
2023-03-12T13:32:42.040Z,8.75
2023-03-12T13:35:22.779Z,7.40
2023-03-12T13:38:02.993Z,7.33
2023-03-12T13:41:00.056Z,7.05
2023-03-12T13:43:44.496Z,11.90
2023-03-12T13:46:40.514Z,7.17
2023-03-12T13:49:17.038Z,4.20
2023-03-12T13:52:06.132Z,5.83
2023-03-12T13:54:42.814Z,6.10
2023-03-12T13:57:29.401Z,4.45
2023-03-12T14:00:05.621Z,5.78
2023-03-12T14:02:44.401Z,5.53
2023-03-12T14:05:18.308Z,5.47
2023-03-12T14:08:10.142Z,8.95
2023-03-12T14:11:06.872Z,5.35
2023-03-12T14:14:30.778Z,7.15
2023-03-12T14:17:06.184Z,6.85
2023-03-12T14:19:40.990Z,5.30
2023-03-12T14:22:16.059Z,4.25
2023-03-12T14:24:58.870Z,5.58
2023-03-12T14:27:34.689Z,5.40
2023-03-12T14:30:33.876Z,6.22
2023-03-12T14:33:07.531Z,6.95
2023-03-12T14:38:30.161Z,5.22
2023-03-12T14:41:11.256Z,4.85
2023-03-12T14:43:46.847Z,8.98
2023-03-12T14:46:25.504Z,8.10
2023-03-12T14:48:59.530Z,6.83
2023-03-12T14:51:35.111Z,8.35
2023-03-12T14:54:11.453Z,7.75
2023-03-12T14:56:46.632Z,8.38
2023-03-12T14:59:37.143Z,8.88
2023-03-12T15:02:19.798Z,7.05
2023-03-12T15:04:57.800Z,9.73
2023-03-12T15:07:35.232Z,9.35
2023-03-12T15:10:25.042Z,9.13
2023-03-12T15:13:01.690Z,7.45
2023-03-12T15:15:42.579Z,6.90
2023-03-12T15:18:22.432Z,6.08
2023-03-12T15:20:57.517Z,8.80
2023-03-12T15:23:34.203Z,6.12
2023-03-12T15:26:20.954Z,6.17
2023-03-12T15:29:20.759Z,6.28
2023-03-12T15:31:57.579Z,7.25
2023-03-12T15:34:38.074Z,9.50
2023-03-12T15:37:37.624Z,15.15
2023-03-12T15:40:31.193Z,11.05
2023-03-12T15:43:06.365Z,7.97
2023-03-12T15:45:41.456Z,9.05
2023-03-12T15:48:30.164Z,7.40
2023-03-12T15:51:03.236Z,12.28
2023-03-12T15:53:37.123Z,7.90
2023-03-12T15:56:17.677Z,7.53
2023-03-12T15:59:11.836Z,11.00
2023-03-12T16:01:50.992Z,14.53
2023-03-12T16:04:25.128Z,18.02
2023-03-12T16:06:58.072Z,28.17
2023-03-12T16:09:33.105Z,25.97
2023-03-12T16:12:07.325Z,20.75
2023-03-12T16:14:41.060Z,11.80
2023-03-12T16:17:18.012Z,12.15
2023-03-12T16:19:51.107Z,9.93
2023-03-12T16:22:24.319Z,10.08
2023-03-12T16:24:57.970Z,13.37
2023-03-12T16:27:32.838Z,15.25
2023-03-12T16:30:10.898Z,13.48
2023-03-12T16:32:44.076Z,18.15
2023-03-12T16:35:20.520Z,10.75
2023-03-12T16:37:53.762Z,14.50
2023-03-12T16:40:33.641Z,13.80
2023-03-12T16:43:06.055Z,10.35
2023-03-12T16:45:39.256Z,14.33
2023-03-12T16:48:15.928Z,13.03
2023-03-12T16:50:54.882Z,12.35
2023-03-12T16:53:28.619Z,11.43
2023-03-12T16:56:02.811Z,7.60
2023-03-12T16:58:36.502Z,13.62
2023-03-12T17:01:15.639Z,20.43
2023-03-12T17:03:50.472Z,15.08
2023-03-12T17:06:29.528Z,11.22
2023-03-12T17:09:02.449Z,7.78
2023-03-12T17:11:35.813Z,8.58
2023-03-12T17:14:22.265Z,6.73
2023-03-12T17:16:55.992Z,7.80
2023-03-12T17:19:29.462Z,6.97
2023-03-12T17:22:03.915Z,12.28
2023-03-12T17:24:39.466Z,9.35
2023-03-12T17:29:45.797Z,5.65
2023-03-12T17:32:19.762Z,6.70
2023-03-12T17:35:01.053Z,4.65
2023-03-12T17:37:36.005Z,11.28
2023-03-12T17:40:11.207Z,6.33
2023-03-12T17:42:44.974Z,5.62
2023-03-12T17:45:18.512Z,6.83
2023-03-12T17:47:51.323Z,6.27
2023-03-12T17:50:24.752Z,6.50
2023-03-12T17:52:57.480Z,7.85
2023-03-12T17:55:30.254Z,5.50
2023-03-12T17:58:03.623Z,4.53
2023-03-12T18:00:38.234Z,5.47
2023-03-12T18:05:43.301Z,8.38
2023-03-12T18:08:17.084Z,4.60
2023-03-12T18:10:50.920Z,11.18
2023-03-12T18:13:24.397Z,6.40
2023-03-12T18:15:59.656Z,5.45
2023-03-12T18:18:32.571Z,6.90
2023-03-12T18:21:06.127Z,4.85
2023-03-12T18:23:39.423Z,7.97
2023-03-12T18:26:13.062Z,6.90
2023-03-12T18:28:45.946Z,3.92
2023-03-12T18:31:18.907Z,4.08
2023-03-12T18:33:52.612Z,4.40
2023-03-12T18:36:25.667Z,7.47
2023-03-12T18:38:59.680Z,4.22
2023-03-12T18:41:33.220Z,6.03
2023-03-12T18:44:06.897Z,9.73
2023-03-12T18:46:39.902Z,8.03
2023-03-12T18:49:15.558Z,8.35
2023-03-12T18:51:51.338Z,12.75
2023-03-12T18:54:25.456Z,5.85
2023-03-12T18:56:58.763Z,3.37
2023-03-12T18:59:32.482Z,3.05
2023-03-12T19:02:05.646Z,4.25
2023-03-12T19:04:38.643Z,4.00
2023-03-12T19:07:12.242Z,14.83
2023-03-12T19:09:45.950Z,9.03
2023-03-12T19:12:19.091Z,5.90
2023-03-12T19:14:51.943Z,11.20
2023-03-12T19:17:24.829Z,8.73
2023-03-12T19:19:57.858Z,5.85
2023-03-12T19:22:30.501Z,5.33
2023-03-12T19:25:03.997Z,6.27
2023-03-12T19:27:37.294Z,9.68
2023-03-12T19:30:11.766Z,3.22
2023-03-12T19:32:44.945Z,4.30
2023-03-12T19:35:18.725Z,3.95
2023-03-12T19:37:51.864Z,3.13
2023-03-12T19:40:24.869Z,4.08
2023-03-12T19:42:57.621Z,4.15
2023-03-12T19:45:30.570Z,4.17
2023-03-12T19:48:04.268Z,3.50
2023-03-12T19:50:37.086Z,3.53
2023-03-12T19:53:11.040Z,3.12
2023-03-12T19:55:44.004Z,3.42
2023-03-12T19:58:17.698Z,3.77
2023-03-12T20:00:50.647Z,3.80
2023-03-12T20:03:23.552Z,2.02
2023-03-12T20:05:57.225Z,3.25
2023-03-12T20:08:33.375Z,2.55
2023-03-12T20:11:10.397Z,2.10
2023-03-12T20:13:43.291Z,1.95
2023-03-12T20:16:17.139Z,2.02
2023-03-12T20:18:51.717Z,2.02
2023-03-12T20:24:00.284Z,2.75
2023-03-12T20:26:33.792Z,2.37
2023-03-12T20:29:07.874Z,2.87
2023-03-12T20:31:43.318Z,3.55
2023-03-12T20:34:16.358Z,2.55
2023-03-12T20:36:49.852Z,2.08
2023-03-12T20:39:23.022Z,2.50
2023-03-12T20:41:56.269Z,1.65
2023-03-12T20:44:28.901Z,2.95
2023-03-12T20:47:01.966Z,3.05
2023-03-12T20:49:35.875Z,2.42
2023-03-12T20:52:08.703Z,2.60
2023-03-12T20:54:42.251Z,2.70
2023-03-12T20:57:15.166Z,3.47
2023-03-12T20:59:47.844Z,4.35
2023-03-12T21:02:21.000Z,2.80
2023-03-12T21:04:54.463Z,5.75
2023-03-12T21:07:28.216Z,4.12
2023-03-12T21:10:01.016Z,3.52
2023-03-12T21:12:34.691Z,3.98
2023-03-12T21:17:43.609Z,6.05
2023-03-12T21:20:19.773Z,5.17
2023-03-12T21:22:53.038Z,8.45
2023-03-12T21:25:25.901Z,5.08
2023-03-12T21:28:00.223Z,4.90
2023-03-12T21:30:33.547Z,9.88
2023-03-12T21:33:07.708Z,12.82
2023-03-12T21:35:46.928Z,10.55
2023-03-12T21:38:21.424Z,9.20
2023-03-12T21:40:54.544Z,7.72
2023-03-12T21:43:30.120Z,6.80
2023-03-12T21:46:12.888Z,7.53
2023-03-12T21:48:48.129Z,7.47
2023-03-12T21:51:22.894Z,7.42
2023-03-12T21:53:57.937Z,8.20
2023-03-12T21:56:31.194Z,5.15
2023-03-12T21:59:04.196Z,5.65
2023-03-12T22:01:37.444Z,6.90
2023-03-12T22:04:10.389Z,6.47
2023-03-12T22:06:43.473Z,7.90
2023-03-12T22:09:17.003Z,8.75
2023-03-12T22:11:51.081Z,7.90
2023-03-12T22:14:25.474Z,8.68
2023-03-12T22:16:58.291Z,8.08
2023-03-12T22:19:31.059Z,8.25
2023-03-12T22:22:04.403Z,7.70
2023-03-12T22:24:37.899Z,7.37
2023-03-12T22:27:10.705Z,7.87
2023-03-12T22:29:43.978Z,4.78
2023-03-12T22:32:16.632Z,9.65
2023-03-12T22:34:50.540Z,5.67
2023-03-12T22:37:23.217Z,6.95
2023-03-12T22:39:57.906Z,4.53
2023-03-12T22:42:30.876Z,7.58
2023-03-12T22:45:04.043Z,5.22
2023-03-12T22:47:37.654Z,5.08
2023-03-12T22:50:11.929Z,5.08
2023-03-12T22:52:45.282Z,5.45
2023-03-12T22:55:18.486Z,5.65
2023-03-12T22:57:51.162Z,6.33
2023-03-12T23:00:24.177Z,4.12
2023-03-12T23:02:56.992Z,5.17
2023-03-12T23:05:29.902Z,4.15
2023-03-12T23:08:02.569Z,6.05
2023-03-12T23:10:36.011Z,7.62
2023-03-12T23:13:09.738Z,5.05
2023-03-12T23:15:43.094Z,6.33
2023-03-12T23:18:16.983Z,4.75
2023-03-12T23:20:55.509Z,5.83
2023-03-12T23:23:29.255Z,4.67
2023-03-12T23:26:03.655Z,6.50
2023-03-12T23:28:36.574Z,5.90
2023-03-12T23:31:12.166Z,6.10
2023-03-12T23:33:45.756Z,7.00
2023-03-12T23:36:23.840Z,4.87
2023-03-12T23:38:56.877Z,5.28
2023-03-12T23:41:31.058Z,8.60
2023-03-12T23:44:05.241Z,6.22
2023-03-12T23:46:38.759Z,5.77
2023-03-12T23:49:13.539Z,6.12
2023-03-12T23:51:47.734Z,7.28
2023-03-12T23:54:20.660Z,6.97
2023-03-12T23:56:53.717Z,7.28
2023-03-12T23:59:26.388Z,6.85
